Rio das Pedras, Brazil
Current Conditions -  °F | °C
As of 12:00 AM on Saturday 29 Nov 2014 (Local Time) from SBKP Reporting Station
Clear Clear  
Wind Chill: 68°   Ceiling: Unl
Heat Index: 68°   Visibility: 6mi
Dew Point: 59°   Wind: 14mph
Humidity: 73%   Direction: 140°SE
Pressure: 30.09"   Gusts: NA
Location:  22.84°S, 47.61°W
Report Text: SBKP 290200Z 14012KT CAVOK 20/15 Q1019
Loading
Personal Weather Stations






























Interactive Weather Map New forecast layout! Learn more

10-Day Weather Forecast

Advertisements
Track Severe Weather on mobile